Time;durP1;ratioP1;P1;durP2;ratioP2;P2;SDS_P1;SDS_P2;PMS_P1;PMS_P2;Temp;Humidity;BMP_temperature;BMP_pressure;BME280_temperature;BME280_humidity;BME280_pressure;Samples;Min_cycle;Max_cycle;Signal;HPM_P1;HPM_P2
2022/08/23 00:02:07;;;;;;;8.90;5.70;;;20.00;85.20;;;;;;5078801;28;20405;-81
2022/08/23 00:04:37;;;;;;;6.23;5.40;;;19.90;85.20;;;;;;5076101;28;20527;-83
2022/08/23 00:07:07;;;;;;;5.63;5.10;;;20.00;85.70;;;;;;5062315;28;20444;-83
2022/08/23 00:09:34;;;;;;;9.50;5.63;;;20.00;85.30;;;;;;5061898;28;21004;-83
2022/08/23 00:12:09;;;;;;;7.00;5.57;;;20.00;85.40;;;;;;5059731;28;20803;-83
2022/08/23 00:14:38;;;;;;;10.23;7.00;;;20.00;85.30;;;;;;5062259;28;20494;-83
2022/08/23 00:17:07;;;;;;;9.83;6.97;;;19.90;85.10;;;;;;5061145;28;20438;-83
2022/08/23 00:19:35;;;;;;;11.40;9.00;;;19.90;85.40;;;;;;5061699;28;20464;-83
2022/08/23 00:22:02;;;;;;;9.23;6.97;;;19.90;85.60;;;;;;5061163;28;20445;-83
2022/08/23 00:24:30;;;;;;;8.03;5.60;;;19.90;85.90;;;;;;5061265;28;20551;-84
2022/08/23 00:27:03;;;;;;;7.80;5.07;;;19.90;86.40;;;;;;5060794;28;20469;-83
2022/08/23 00:29:32;;;;;;;7.40;6.13;;;19.80;86.80;;;;;;5058558;28;20468;-82
2022/08/23 00:32:00;;;;;;;6.70;5.73;;;19.80;87.40;;;;;;5061080;28;21117;-83
2022/08/23 00:34:27;;;;;;;8.93;6.00;;;19.70;87.80;;;;;;5058310;28;20444;-84
2022/08/23 00:36:55;;;;;;;7.73;5.47;;;19.70;87.90;;;;;;5059985;28;20441;-82
2022/08/23 00:39:22;;;;;;;8.80;5.20;;;19.70;88.00;;;;;;5053931;28;20461;-82
2022/08/23 00:41:51;;;;;;;8.30;5.50;;;19.70;88.20;;;;;;5054915;28;20536;-83
2022/08/23 00:49:59;;;;;;;8.53;5.37;;;19.60;89.00;;;;;;5066176;28;20519;-83
2022/08/23 00:52:33;;;;;;;11.00;5.40;;;19.60;89.20;;;;;;5059330;28;20437;-82
2022/08/23 00:55:00;;;;;;;6.53;5.57;;;19.50;89.90;;;;;;5068778;28;20433;-82
2022/08/23 00:57:30;;;;;;;7.37;5.30;;;19.50;90.10;;;;;;5067599;28;20512;-83
2022/08/23 00:59:57;;;;;;;5.83;5.00;;;19.50;90.30;;;;;;5062570;28;20452;-84
2022/08/23 01:02:25;;;;;;;7.47;6.10;;;19.50;90.30;;;;;;5062943;28;20433;-84
2022/08/23 01:04:55;;;;;;;10.97;6.00;;;19.50;90.40;;;;;;5062633;28;20836;-84
2022/08/23 01:07:33;;;;;;;5.90;5.30;;;19.40;90.60;;;;;;5062481;28;20444;-83
2022/08/23 01:10:08;;;;;;;10.67;5.90;;;19.40;90.70;;;;;;5061117;28;20465;-83
2022/08/23 01:12:41;;;;;;;8.23;6.67;;;19.40;90.90;;;;;;5061069;28;20527;-83
2022/08/23 01:15:14;;;;;;;6.03;5.30;;;19.30;91.30;;;;;;5074550;28;20417;-80
2022/08/23 01:17:45;;;;;;;9.23;6.00;;;19.30;91.60;;;;;;5073221;28;20433;-82
2022/08/23 01:20:16;;;;;;;8.37;6.67;;;19.20;91.90;;;;;;5064165;28;20456;-84
2022/08/23 01:22:50;;;;;;;7.37;6.00;;;19.10;92.30;;;;;;5076129;28;20424;-80
2022/08/23 01:25:21;;;;;;;6.63;5.27;;;19.10;92.60;;;;;;5076098;28;20507;-82
2022/08/23 01:27:48;;;;;;;8.33;6.60;;;19.00;93.00;;;;;;5065770;28;20437;-84
2022/08/23 01:30:22;;;;;;;7.73;6.50;;;19.00;93.50;;;;;;5061099;28;20567;-84
2022/08/23 01:32:52;;;;;;;7.63;6.87;;;19.00;93.50;;;;;;5057028;28;20463;-83
2022/08/23 01:35:20;;;;;;;7.77;6.80;;;19.00;93.90;;;;;;5059591;28;20444;-82
2022/08/23 01:37:47;;;;;;;10.17;9.10;;;19.00;94.00;;;;;;5057754;28;20439;-84
2022/08/23 01:40:14;;;;;;;13.60;8.73;;;19.00;94.40;;;;;;5059262;28;20475;-84
2022/08/23 01:42:43;;;;;;;10.97;8.17;;;18.90;94.70;;;;;;5058278;28;20441;-84
2022/08/23 01:45:11;;;;;;;9.40;7.67;;;18.90;95.00;;;;;;5057104;28;20514;-84
2022/08/23 01:47:39;;;;;;;7.37;6.67;;;18.90;95.30;;;;;;5056237;28;20455;-83
2022/08/23 01:50:07;;;;;;;8.97;8.17;;;18.90;95.50;;;;;;5054530;28;20452;-82
2022/08/23 01:52:35;;;;;;;12.63;7.30;;;18.80;95.80;;;;;;5058810;28;20448;-83
2022/08/23 01:55:02;;;;;;;9.37;8.37;;;18.80;96.00;;;;;;5060367;28;20436;-82
2022/08/23 01:57:29;;;;;;;10.87;7.90;;;18.80;96.20;;;;;;5061597;28;20448;-84
2022/08/23 01:59:58;;;;;;;7.70;7.00;;;18.80;96.40;;;;;;5074895;28;20535;-81
2022/08/23 02:02:24;;;;;;;11.20;8.40;;;18.80;96.70;;;;;;5057971;28;20444;-82
2022/08/23 02:04:51;;;;;;;8.10;7.30;;;18.70;96.90;;;;;;5057946;28;20484;-82
2022/08/23 02:07:19;;;;;;;11.57;7.47;;;18.70;97.20;;;;;;5071783;28;20500;-81
2022/08/23 02:09:46;;;;;;;9.43;8.23;;;18.70;97.30;;;;;;5080908;28;20452;-81
2022/08/23 02:12:13;;;;;;;8.30;7.60;;;18.60;97.50;;;;;;5065224;28;20453;-83
2022/08/23 02:14:40;;;;;;;10.73;8.20;;;18.60;97.80;;;;;;5060343;28;20977;-83
2022/08/23 02:17:09;;;;;;;10.37;7.80;;;18.50;98.20;;;;;;5060399;28;20502;-84
2022/08/23 02:19:36;;;;;;;10.63;8.67;;;18.40;98.70;;;;;;5060580;28;20978;-83
2022/08/23 02:22:04;;;;;;;8.93;7.17;;;18.50;98.80;;;;;;5060331;28;20548;-83
2022/08/23 02:24:32;;;;;;;8.80;7.93;;;18.50;98.70;;;;;;5060562;28;20558;-84
2022/08/23 02:27:02;;;;;;;9.97;8.43;;;18.40;98.80;;;;;;5063495;28;20452;-84
2022/08/23 02:32:02;;;;;;;9.17;7.37;;;18.40;99.70;;;;;;5049440;28;20472;-80
2022/08/23 02:34:31;;;;;;;7.70;6.77;;;18.40;99.70;;;;;;5057166;28;20444;-80
2022/08/23 02:36:57;;;;;;;9.13;7.03;;;18.30;99.70;;;;;;5055040;28;20448;-80
2022/08/23 02:39:24;;;;;;;12.00;7.77;;;18.30;99.90;;;;;;5052755;28;20453;-80
2022/08/23 02:41:52;;;;;;;8.23;7.40;;;18.20;99.90;;;;;;5052383;28;20451;-80
2022/08/23 02:44:19;;;;;;;10.30;8.13;;;18.20;99.90;;;;;;5048557;28;20485;-80
2022/08/23 02:46:46;;;;;;;10.00;8.93;;;18.20;99.90;;;;;;5048475;28;20454;-80
2022/08/23 02:49:13;;;;;;;8.90;7.97;;;18.20;99.90;;;;;;5050922;28;20458;-80
2022/08/23 02:51:41;;;;;;;13.83;8.20;;;18.10;99.90;;;;;;5050972;28;20478;-80
2022/08/23 02:54:08;;;;;;;10.13;8.27;;;18.00;99.90;;;;;;5050072;28;20449;-80
2022/08/23 02:56:35;;;;;;;8.03;7.30;;;18.00;99.90;;;;;;5048319;28;20470;-80
2022/08/23 02:59:03;;;;;;;10.73;7.30;;;18.00;99.90;;;;;;5048699;28;20442;-80
2022/08/23 03:01:32;;;;;;;9.73;6.87;;;18.00;99.90;;;;;;5047935;28;20462;-80
2022/08/23 03:03:59;;;;;;;8.70;7.10;;;17.90;99.90;;;;;;5046359;28;20960;-80
2022/08/23 03:06:26;;;;;;;7.83;7.00;;;17.80;99.90;;;;;;5046150;28;20446;-80
2022/08/23 03:08:55;;;;;;;7.83;7.00;;;17.80;99.90;;;;;;5046436;28;20455;-80
2022/08/23 03:11:24;;;;;;;8.43;7.73;;;17.90;99.90;;;;;;5047473;28;20466;-80
2022/08/23 03:13:52;;;;;;;8.30;7.50;;;17.90;99.90;;;;;;5046841;28;20445;-80
2022/08/23 03:16:19;;;;;;;8.83;7.20;;;17.90;99.90;;;;;;5047088;28;20463;-80
2022/08/23 03:18:48;;;;;;;8.40;7.60;;;17.90;99.90;;;;;;5051147;28;20446;-80
2022/08/23 03:21:15;;;;;;;7.90;7.10;;;17.90;99.90;;;;;;5057540;28;20580;-80
2022/08/23 03:23:42;;;;;;;7.93;7.00;;;17.80;99.90;;;;;;5047581;28;20446;-80
2022/08/23 03:26:12;;;;;;;11.33;8.40;;;17.70;99.90;;;;;;5046805;28;20487;-80
2022/08/23 03:28:41;;;;;;;10.43;7.87;;;17.80;99.90;;;;;;5046612;28;20450;-80
2022/08/23 03:31:08;;;;;;;10.20;7.00;;;17.70;99.90;;;;;;5047475;28;20471;-80
2022/08/23 03:33:35;;;;;;;14.73;8.77;;;17.60;99.90;;;;;;5047606;28;20441;-80
2022/08/23 03:36:06;;;;;;;13.40;8.07;;;17.60;99.90;;;;;;5046654;28;20482;-80
2022/08/23 03:38:33;;;;;;;10.53;7.60;;;17.60;99.90;;;;;;5046092;28;20448;-80
2022/08/23 03:41:00;;;;;;;10.33;8.53;;;17.60;99.90;;;;;;5046450;28;20477;-80
2022/08/23 03:43:29;;;;;;;11.83;10.53;;;17.60;99.90;;;;;;5044944;28;20496;-80
2022/08/23 03:45:56;;;;;;;10.20;8.80;;;17.50;99.90;;;;;;5044327;28;20539;-80
2022/08/23 03:48:23;;;;;;;9.30;7.60;;;17.60;99.90;;;;;;5045526;28;20476;-80
2022/08/23 03:50:50;;;;;;;12.43;8.93;;;17.50;99.90;;;;;;5046244;28;20808;-80
2022/08/23 03:53:17;;;;;;;8.57;6.93;;;17.50;99.90;;;;;;5046126;28;20457;-80
2022/08/23 03:55:44;;;;;;;12.27;8.00;;;17.50;99.90;;;;;;5045075;28;20499;-80
2022/08/23 03:58:11;;;;;;;12.37;8.70;;;17.50;99.90;;;;;;5046884;28;20773;-80
2022/08/23 04:00:39;;;;;;;9.63;8.00;;;17.50;99.90;;;;;;5046373;28;20565;-80
2022/08/23 04:03:06;;;;;;;10.93;9.20;;;17.50;99.90;;;;;;5047338;28;20477;-80
2022/08/23 04:05:33;;;;;;;13.47;9.67;;;17.50;99.90;;;;;;5050789;28;20489;-80
2022/08/23 04:08:01;;;;;;;13.10;10.10;;;17.40;99.90;;;;;;5051958;28;20442;-80
2022/08/23 04:10:28;;;;;;;9.73;8.70;;;17.30;99.90;;;;;;5055208;28;20468;-80
2022/08/23 04:12:54;;;;;;;13.43;8.47;;;17.30;99.90;;;;;;5053779;28;20456;-79
2022/08/23 04:15:21;;;;;;;11.40;8.10;;;17.30;99.90;;;;;;5049005;28;20452;-80
2022/08/23 04:17:49;;;;;;;11.13;8.03;;;17.30;99.90;;;;;;5047733;28;20538;-80
2022/08/23 04:20:17;;;;;;;9.60;7.97;;;17.30;99.90;;;;;;5045650;28;20474;-80
2022/08/23 04:22:44;;;;;;;10.00;7.47;;;17.30;99.90;;;;;;5045882;28;20465;-80
2022/08/23 04:25:11;;;;;;;13.33;8.63;;;17.40;99.90;;;;;;5043658;28;20493;-80
2022/08/23 04:27:38;;;;;;;9.63;8.17;;;17.40;99.90;;;;;;5046066;28;20870;-81
2022/08/23 04:30:05;;;;;;;10.43;8.30;;;17.40;99.90;;;;;;5046380;28;20477;-80
2022/08/23 04:32:32;;;;;;;16.43;8.20;;;17.40;99.90;;;;;;5052772;28;20454;-80
2022/08/23 04:35:00;;;;;;;11.63;9.57;;;17.30;99.90;;;;;;5048921;28;20483;-80
2022/08/23 04:37:27;;;;;;;10.97;8.70;;;17.30;99.90;;;;;;5046642;28;20466;-80
2022/08/23 04:42:38;;;;;;;12.20;9.13;;;17.30;99.90;;;;;;5046451;28;20965;-80
2022/08/23 04:45:06;;;;;;;10.93;9.43;;;17.20;99.90;;;;;;5047452;28;20939;-80
2022/08/23 04:47:33;;;;;;;9.33;8.40;;;17.20;99.90;;;;;;5047934;28;20457;-80
2022/08/23 04:50:01;;;;;;;9.80;7.57;;;17.20;99.90;;;;;;5047529;28;20477;-80
2022/08/23 04:52:28;;;;;;;11.53;7.90;;;17.10;99.90;;;;;;5045681;28;20449;-80
2022/08/23 04:54:55;;;;;;;13.07;9.30;;;17.20;99.90;;;;;;5046719;28;20476;-80
2022/08/23 04:57:22;;;;;;;10.50;7.97;;;17.20;99.90;;;;;;5045581;28;20513;-80
2022/08/23 04:59:48;;;;;;;10.83;8.30;;;17.30;99.90;;;;;;5043814;28;20495;-80
2022/08/23 05:02:15;;;;;;;9.70;8.70;;;17.20;99.90;;;;;;5045162;28;20476;-80
2022/08/23 05:04:41;;;;;;;12.30;9.70;;;17.30;99.90;;;;;;5045344;28;20481;-80
2022/08/23 05:07:10;;;;;;;12.37;8.50;;;17.30;99.90;;;;;;5044757;28;20473;-80
2022/08/23 05:09:36;;;;;;;13.20;8.90;;;17.40;99.90;;;;;;5047473;28;20466;-80
2022/08/23 05:12:03;;;;;;;9.97;8.97;;;17.60;99.90;;;;;;5052266;28;20481;-80
2022/08/23 05:14:30;;;;;;;11.20;9.13;;;17.80;99.90;;;;;;5038376;28;20449;-81
2022/08/23 05:16:57;;;;;;;15.30;8.90;;;18.20;99.90;;;;;;5039175;28;20470;-80
2022/08/23 05:19:24;;;;;;;13.73;8.27;;;18.40;99.90;;;;;;5038854;28;20890;-80
2022/08/23 05:21:50;;;;;;;9.33;8.43;;;18.60;99.90;;;;;;5039641;28;20457;-81
2022/08/23 05:24:18;;;;;;;10.23;7.83;;;18.50;99.90;;;;;;5049668;28;20449;-80
2022/08/23 05:26:45;;;;;;;9.80;8.33;;;18.50;99.90;;;;;;5049768;28;20612;-80
2022/08/23 05:29:12;;;;;;;12.90;8.80;;;18.60;99.90;;;;;;5045463;28;20456;-80
2022/08/23 05:31:38;;;;;;;13.83;9.20;;;18.70;99.90;;;;;;5045317;28;20856;-81
2022/08/23 05:34:06;;;;;;;10.23;7.90;;;18.60;99.90;;;;;;5042742;28;20484;-80
2022/08/23 05:36:33;;;;;;;16.90;9.17;;;18.60;99.90;;;;;;5040577;28;20647;-80
2022/08/23 05:39:00;;;;;;;15.70;9.17;;;18.50;99.90;;;;;;5041639;28;20626;-79
2022/08/23 05:41:28;;;;;;;11.97;8.60;;;18.50;99.90;;;;;;5045047;28;20469;-79
2022/08/23 05:43:55;;;;;;;19.60;9.33;;;18.50;99.90;;;;;;5047408;28;20484;-80
2022/08/23 05:46:22;;;;;;;11.37;9.50;;;18.50;99.90;;;;;;5046369;28;20493;-81
2022/08/23 05:48:52;;;;;;;10.33;9.20;;;18.60;99.90;;;;;;5045794;28;20456;-80
2022/08/23 05:51:21;;;;;;;14.13;8.03;;;18.60;99.90;;;;;;5044360;28;20560;-80
2022/08/23 05:53:50;;;;;;;12.80;9.77;;;18.60;99.90;;;;;;5045214;28;20492;-80
2022/08/23 05:56:21;;;;;;;13.03;8.50;;;18.90;99.90;;;;;;5044310;28;20525;-80
2022/08/23 05:58:51;;;;;;;12.73;7.63;;;19.00;99.90;;;;;;5052290;28;20438;-80
2022/08/23 06:01:19;;;;;;;10.10;8.07;;;19.10;99.90;;;;;;5043416;28;20469;-79
2022/08/23 06:03:46;;;;;;;8.50;6.93;;;19.10;99.90;;;;;;5047232;28;20430;-79
2022/08/23 06:06:14;;;;;;;15.93;8.37;;;19.10;99.90;;;;;;5047824;28;20477;-80
2022/08/23 06:08:41;;;;;;;14.63;7.90;;;19.10;99.90;;;;;;5042340;28;20441;-79
2022/08/23 06:11:11;;;;;;;10.80;7.10;;;19.10;99.90;;;;;;5043120;28;20913;-79
2022/08/23 06:13:41;;;;;;;13.50;8.03;;;19.20;99.90;;;;;;5041952;28;20449;-80
2022/08/23 06:16:10;;;;;;;13.23;7.50;;;19.60;99.90;;;;;;5042411;28;20446;-80
2022/08/23 06:18:37;;;;;;;12.17;7.67;;;20.40;98.20;;;;;;5042682;28;20449;-80
2022/08/23 06:21:06;;;;;;;12.10;7.57;;;21.30;96.40;;;;;;5043824;28;20465;-80
2022/08/23 06:23:33;;;;;;;11.50;6.63;;;22.40;93.30;;;;;;5044181;28;20450;-80
2022/08/23 06:26:01;;;;;;;10.67;6.47;;;23.30;90.80;;;;;;5045396;28;20508;-81
2022/08/23 06:28:31;;;;;;;8.77;6.70;;;24.10;85.40;;;;;;5043389;28;20493;-81
2022/08/23 06:30:57;;;;;;;10.47;6.53;;;24.90;80.90;;;;;;5043843;28;20942;-81
2022/08/23 06:33:26;;;;;;;7.60;6.30;;;25.30;76.70;;;;;;5041728;28;20444;-80
2022/08/23 06:36:03;;;;;;;8.80;6.37;;;25.40;73.10;;;;;;5044454;28;20465;-80
2022/08/23 06:38:30;;;;;;;6.07;5.50;;;25.90;70.70;;;;;;5048382;28;20876;-80
2022/08/23 06:41:00;;;;;;;7.50;6.57;;;26.10;69.80;;;;;;5049716;28;20569;-80
2022/08/23 06:43:27;;;;;;;6.20;5.03;;;26.50;67.10;;;;;;5048260;28;20466;-80
2022/08/23 06:45:53;;;;;;;7.03;5.80;;;27.10;64.80;;;;;;5046505;28;21186;-81
2022/08/23 06:48:20;;;;;;;9.20;5.70;;;27.50;62.20;;;;;;5048055;28;20438;-79
2022/08/23 06:50:48;;;;;;;9.80;6.20;;;27.80;61.20;;;;;;5047113;28;20454;-80
2022/08/23 06:53:15;;;;;;;9.33;5.73;;;28.00;59.90;;;;;;5049188;28;20441;-81
2022/08/23 06:55:41;;;;;;;5.43;4.80;;;28.20;59.30;;;;;;5062764;28;20448;-80
2022/08/23 06:58:08;;;;;;;9.10;4.63;;;28.60;57.90;;;;;;5073341;28;20452;-81
2022/08/23 07:00:35;;;;;;;8.80;6.00;;;29.00;57.40;;;;;;5053091;28;20449;-81
2022/08/23 07:03:02;;;;;;;9.20;5.50;;;29.10;55.90;;;;;;5055034;28;20460;-81
2022/08/23 07:05:30;;;;;;;9.67;5.57;;;29.30;55.60;;;;;;5046719;28;20537;-79
2022/08/23 07:07:58;;;;;;;9.20;5.30;;;29.10;55.50;;;;;;5045514;28;20892;-83
2022/08/23 07:10:24;;;;;;;14.63;6.90;;;29.50;54.80;;;;;;5045241;28;20467;-81
2022/08/23 07:12:51;;;;;;;9.37;5.33;;;29.80;54.40;;;;;;5045176;28;20453;-80
2022/08/23 07:15:18;;;;;;;7.00;5.10;;;30.60;53.30;;;;;;5045413;28;20448;-82
2022/08/23 07:17:45;;;;;;;7.37;5.20;;;31.00;52.00;;;;;;5045667;28;20456;-82
2022/08/23 07:20:15;;;;;;;7.77;5.30;;;31.40;50.70;;;;;;5047647;28;20498;-81
2022/08/23 07:22:43;;;;;;;8.27;4.73;;;31.50;49.90;;;;;;5065323;28;20440;-82
2022/08/23 07:25:11;;;;;;;5.10;4.70;;;31.70;49.70;;;;;;5060575;28;20444;-81
2022/08/23 07:27:38;;;;;;;9.40;5.10;;;32.00;49.00;;;;;;5056868;28;20430;-80
2022/08/23 07:30:06;;;;;;;5.67;4.77;;;31.50;49.30;;;;;;5051077;28;20468;-81
2022/08/23 07:32:33;;;;;;;8.30;5.23;;;31.80;49.30;;;;;;5047857;28;20870;-81
2022/08/23 07:35:00;;;;;;;5.97;4.87;;;31.80;47.90;;;;;;5048532;28;20863;-81
2022/08/23 07:37:27;;;;;;;7.07;4.53;;;31.50;48.70;;;;;;5060876;28;20505;-81
2022/08/23 07:39:54;;;;;;;10.33;5.27;;;31.80;49.10;;;;;;5062204;28;20533;-81
2022/08/23 07:42:22;;;;;;;5.33;4.77;;;32.30;47.80;;;;;;5053033;28;20486;-81
2022/08/23 07:44:49;;;;;;;7.03;4.40;;;32.70;46.80;;;;;;5047695;28;20451;-81
2022/08/23 07:47:15;;;;;;;5.50;4.93;;;31.90;47.30;;;;;;5051797;28;20473;-81
2022/08/23 07:49:42;;;;;;;7.93;4.67;;;30.40;49.10;;;;;;5049269;28;20474;-81
2022/08/23 07:52:09;;;;;;;5.53;4.80;;;28.90;51.90;;;;;;5049949;28;20509;-81
2022/08/23 07:54:36;;;;;;;9.73;4.93;;;28.20;53.70;;;;;;5049342;28;20441;-81
2022/08/23 07:57:02;;;;;;;4.83;4.30;;;28.00;54.70;;;;;;5063065;28;20417;-81
2022/08/23 07:59:31;;;;;;;4.13;3.70;;;27.90;55.10;;;;;;5063282;28;20444;-81
2022/08/23 08:01:58;;;;;;;14.13;5.00;;;27.80;55.70;;;;;;5062514;28;20530;-81
2022/08/23 08:04:24;;;;;;;8.30;4.57;;;28.40;55.10;;;;;;5052969;28;20444;-81
2022/08/23 08:06:51;;;;;;;5.57;4.50;;;27.90;55.10;;;;;;5050039;28;20485;-81
2022/08/23 08:09:19;;;;;;;6.20;4.63;;;27.50;56.20;;;;;;5047119;28;20447;-81
2022/08/23 08:11:48;;;;;;;7.33;5.50;;;27.00;57.80;;;;;;5060901;28;20482;-81
2022/08/23 08:14:17;;;;;;;9.20;4.57;;;27.20;57.60;;;;;;5058095;28;20440;-82
2022/08/23 08:16:48;;;;;;;9.43;4.67;;;28.20;56.20;;;;;;5059302;28;21026;-81
2022/08/23 08:19:17;;;;;;;6.93;4.80;;;29.70;54.00;;;;;;5051161;28;20443;-81
2022/08/23 08:21:45;;;;;;;6.57;4.33;;;31.00;51.10;;;;;;5049990;28;20907;-81
2022/08/23 08:24:15;;;;;;;5.53;4.37;;;32.00;49.40;;;;;;5048937;28;20461;-80
2022/08/23 08:26:43;;;;;;;5.43;4.37;;;33.40;47.70;;;;;;5048276;28;20489;-82
2022/08/23 08:29:11;;;;;;;7.43;4.87;;;33.70;45.80;;;;;;5054083;28;20444;-82
2022/08/23 08:31:38;;;;;;;7.10;4.60;;;34.90;44.80;;;;;;5066639;28;20487;-81
2022/08/23 08:34:06;;;;;;;4.30;3.90;;;34.80;43.40;;;;;;5064446;28;20442;-82
2022/08/23 08:36:37;;;;;;;4.93;4.23;;;35.40;42.60;;;;;;5064367;28;20425;-82
2022/08/23 08:39:05;;;;;;;9.23;4.40;;;35.50;42.20;;;;;;5063816;28;20440;-81
2022/08/23 08:41:47;;;;;;;5.67;4.30;;;36.00;41.30;;;;;;5060972;28;20485;-82
2022/08/23 08:44:24;;;;;;;5.93;4.10;;;36.20;40.20;;;;;;5054349;28;20458;-82
2022/08/23 08:46:53;;;;;;;5.30;4.10;;;36.30;40.60;;;;;;5052596;28;20480;-82
2022/08/23 08:49:32;;;;;;;5.10;4.10;;;36.90;39.80;;;;;;5051520;28;20446;-82
2022/08/23 08:52:05;;;;;;;7.93;4.30;;;36.90;39.10;;;;;;5047753;28;20439;-81
2022/08/23 08:54:32;;;;;;;8.43;3.90;;;36.50;38.40;;;;;;5055817;28;20534;-82
2022/08/23 08:57:01;;;;;;;7.63;4.20;;;37.20;37.80;;;;;;5066154;28;20458;-81
2022/08/23 08:59:36;;;;;;;4.60;3.40;;;37.80;36.50;;;;;;5052343;28;20448;-82
2022/08/23 09:02:06;;;;;;;3.90;3.50;;;37.80;36.30;;;;;;5048316;28;20448;-82
2022/08/23 09:04:36;;;;;;;3.87;3.47;;;38.70;35.60;;;;;;5047879;28;20479;-82
2022/08/23 09:07:12;;;;;;;4.23;2.77;;;38.20;34.30;;;;;;5047476;28;20480;-82
2022/08/23 09:09:55;;;;;;;22.63;6.33;;;38.40;33.00;;;;;;5044958;28;20451;-82
2022/08/23 09:12:28;;;;;;;3.70;2.73;;;38.40;33.70;;;;;;5044717;28;20502;-81
2022/08/23 09:15:10;;;;;;;9.33;3.60;;;37.90;33.20;;;;;;5044249;28;20465;-82
2022/08/23 09:17:43;;;;;;;37.67;6.83;;;38.80;32.10;;;;;;5047839;28;20508;-82
2022/08/23 09:20:15;;;;;;;6.07;3.63;;;39.10;32.40;;;;;;5045661;28;20458;-81
2022/08/23 09:22:46;;;;;;;7.87;3.93;;;39.40;31.50;;;;;;5035286;28;20447;-82
2022/08/23 09:25:16;;;;;;;5.23;3.30;;;39.40;30.80;;;;;;5028758;28;20438;-82
2022/08/23 09:27:44;;;;;;;3.40;2.50;;;39.60;30.30;;;;;;5031378;28;20496;-81
2022/08/23 09:30:14;;;;;;;5.30;3.17;;;37.30;30.30;;;;;;5046060;28;20476;-81
2022/08/23 09:32:43;;;;;;;4.63;2.60;;;37.70;32.70;;;;;;5044839;28;20438;-82
2022/08/23 09:35:17;;;;;;;4.97;2.93;;;38.40;31.60;;;;;;5033692;28;20457;-82
2022/08/23 09:38:02;;;;;;;3.57;3.27;;;39.30;30.10;;;;;;5029191;28;20497;-82
2022/08/23 09:40:33;;;;;;;4.80;2.77;;;40.10;29.80;;;;;;5030272;28;20464;-82
2022/08/23 09:43:11;;;;;;;6.27;3.43;;;40.10;29.40;;;;;;5060059;28;20440;-82
2022/08/23 09:45:42;;;;;;;5.10;2.73;;;39.60;29.30;;;;;;5062366;28;20445;-82
2022/08/23 09:48:14;;;;;;;8.40;3.13;;;40.60;28.80;;;;;;5059813;28;20437;-80
2022/08/23 09:50:49;;;;;;;4.03;2.80;;;41.00;28.00;;;;;;5053549;28;20489;-80
2022/08/23 09:53:25;;;;;;;4.77;2.60;;;40.60;28.10;;;;;;5054629;28;20448;-80
2022/08/23 09:55:56;;;;;;;3.10;2.53;;;41.40;27.40;;;;;;5055273;28;20468;-80
2022/08/23 09:58:31;;;;;;;6.43;2.40;;;39.50;28.10;;;;;;5061503;28;20472;-80
2022/08/23 10:01:10;;;;;;;4.47;2.97;;;39.10;28.70;;;;;;5055429;28;20516;-80
2022/08/23 10:03:37;;;;;;;3.83;2.37;;;39.50;28.10;;;;;;5048701;28;20441;-81
2022/08/23 10:06:07;;;;;;;5.13;2.50;;;39.90;28.80;;;;;;5046570;28;20440;-81
2022/08/23 10:08:37;;;;;;;4.63;2.47;;;41.40;27.20;;;;;;5053312;28;20456;-80
2022/08/23 10:11:20;;;;;;;3.93;2.73;;;40.30;27.50;;;;;;5059492;28;20456;-81
2022/08/23 10:13:47;;;;;;;3.30;2.73;;;40.80;27.30;;;;;;5060512;28;20425;-81
2022/08/23 10:16:22;;;;;;;3.13;2.03;;;40.70;27.10;;;;;;5054173;28;20840;-81
2022/08/23 10:18:55;;;;;;;3.90;2.20;;;39.60;26.70;;;;;;5053145;28;20439;-81
2022/08/23 10:21:32;;;;;;;4.20;2.50;;;40.10;26.80;;;;;;5052712;28;20461;-81
2022/08/23 10:24:24;;;;;;;2.67;2.47;;;41.00;26.00;;;;;;5051824;28;20460;-81
2022/08/23 10:30:01;;;;;;;2.67;2.40;;;38.70;25.80;;;;;;5047286;28;20447;-80
2022/08/23 10:32:46;;;;;;;2.63;1.93;;;40.10;26.40;;;;;;5049009;28;20809;-81
2022/08/23 10:35:30;;;;;;;2.93;1.93;;;41.00;25.50;;;;;;5053566;28;21064;-81
2022/08/23 10:38:18;;;;;;;3.00;2.13;;;42.10;24.10;;;;;;5049868;28;20434;-81
2022/08/23 10:40:54;;;;;;;4.30;2.23;;;43.20;23.10;;;;;;5048080;28;20452;-81
2022/08/23 10:43:34;;;;;;;2.20;2.00;;;44.00;22.70;;;;;;5047905;28;20455;-81
2022/08/23 10:46:02;;;;;;;3.50;2.33;;;42.20;23.00;;;;;;5048849;28;20448;-80
2022/08/23 10:48:32;;;;;;;4.20;2.20;;;40.20;24.60;;;;;;5047263;28;20502;-81
2022/08/23 10:51:02;;;;;;;2.63;1.93;;;40.30;24.70;;;;;;5049874;28;20467;-80
2022/08/23 10:53:36;;;;;;;3.00;2.27;;;39.80;25.40;;;;;;5054233;28;20440;-80
2022/08/23 10:56:05;;;;;;;2.70;2.03;;;40.30;25.80;;;;;;5063070;28;20897;-81
2022/08/23 10:58:39;;;;;;;2.83;2.53;;;40.10;26.10;;;;;;5050633;28;20450;-81
2022/08/23 11:01:08;;;;;;;4.27;2.73;;;40.30;25.80;;;;;;5058822;28;20504;-81
2022/08/23 11:03:43;;;;;;;3.73;2.20;;;41.00;25.80;;;;;;5066398;28;20437;-81
2022/08/23 11:06:40;;;;;;;3.60;2.53;;;42.00;25.50;;;;;;5050472;28;20438;-81
2022/08/23 11:09:27;;;;;;;5.53;2.80;;;42.70;24.40;;;;;;5045456;28;20504;-80
2022/08/23 11:12:13;;;;;;;2.63;2.43;;;42.30;24.50;;;;;;5050915;28;20445;-79
2022/08/23 11:14:45;;;;;;;3.03;2.60;;;43.20;24.10;;;;;;5042435;28;20846;-80
2022/08/23 11:17:25;;;;;;;4.50;2.70;;;43.90;23.80;;;;;;5042983;28;20504;-80
2022/08/23 11:19:54;;;;;;;3.43;2.60;;;44.90;23.10;;;;;;5046792;28;20536;-80
2022/08/23 11:22:23;;;;;;;4.20;3.33;;;44.40;23.10;;;;;;5060040;28;20457;-81
2022/08/23 11:24:54;;;;;;;2.63;2.43;;;45.70;22.70;;;;;;5040429;28;20449;-80
2022/08/23 11:27:38;;;;;;;3.17;2.60;;;46.40;21.90;;;;;;5042978;28;20486;-80
2022/08/23 11:30:42;;;;;;;4.17;2.57;;;46.20;22.00;;;;;;5042118;28;20468;-80
2022/08/23 11:33:15;;;;;;;3.70;2.43;;;46.40;21.60;;;;;;5037637;28;20449;-79
2022/08/23 11:35:44;;;;;;;5.23;2.73;;;45.70;21.80;;;;;;5040521;28;20503;-82
2022/08/23 11:38:12;;;;;;;3.70;2.67;;;44.80;22.00;;;;;;5047564;28;20818;-81
2022/08/23 11:40:55;;;;;;;5.33;2.80;;;43.60;22.80;;;;;;5042731;28;20477;-82
2022/08/23 11:43:27;;;;;;;3.00;2.63;;;43.20;23.00;;;;;;5036220;28;20446;-81
2022/08/23 11:46:24;;;;;;;6.50;2.70;;;43.40;23.10;;;;;;5038517;28;20473;-82
2022/08/23 11:49:02;;;;;;;6.20;3.00;;;43.90;22.60;;;;;;5038294;28;20541;-80
2022/08/23 11:51:35;;;;;;;3.17;2.57;;;45.20;22.60;;;;;;5035221;28;20477;-79
2022/08/23 11:54:29;;;;;;;2.97;2.67;;;45.80;21.50;;;;;;5039671;28;20919;-80
2022/08/23 11:57:10;;;;;;;4.10;2.87;;;46.00;21.30;;;;;;5039852;28;20442;-80
2022/08/23 12:00:12;;;;;;;2.60;2.20;;;45.10;21.70;;;;;;5041927;28;20998;-80
2022/08/23 12:03:00;;;;;;;2.37;2.03;;;45.00;21.60;;;;;;5044894;28;20532;-80
2022/08/23 12:05:42;;;;;;;2.87;2.53;;;43.70;21.90;;;;;;5050258;28;20446;-79
2022/08/23 12:08:29;;;;;;;3.43;2.50;;;43.30;22.50;;;;;;5046891;28;20486;-80
2022/08/23 12:11:06;;;;;;;3.13;2.30;;;44.10;22.20;;;;;;5045245;28;20461;-80
2022/08/23 12:13:53;;;;;;;3.93;2.90;;;45.30;21.90;;;;;;5040248;28;20454;-80
2022/08/23 12:16:35;;;;;;;4.53;2.60;;;42.70;22.60;;;;;;5054270;28;20505;-79
2022/08/23 12:19:09;;;;;;;3.60;2.70;;;42.50;23.50;;;;;;5057398;28;20440;-79
2022/08/23 12:21:43;;;;;;;3.47;2.33;;;41.40;23.70;;;;;;5046812;28;20468;-80
2022/08/23 12:24:19;;;;;;;3.93;2.57;;;40.10;25.10;;;;;;5045085;28;20441;-80
2022/08/23 12:26:53;;;;;;;4.30;2.33;;;41.20;25.00;;;;;;5041988;28;20452;-80
2022/08/23 12:29:38;;;;;;;2.50;2.20;;;41.90;23.90;;;;;;5045466;28;20937;-81
2022/08/23 12:32:16;;;;;;;2.70;2.40;;;40.90;24.20;;;;;;5058538;28;20442;-81
2022/08/23 12:34:53;;;;;;;2.80;2.60;;;41.30;24.50;;;;;;5058768;28;20433;-81
2022/08/23 12:37:30;;;;;;;2.33;2.13;;;42.20;24.40;;;;;;5053208;28;20997;-80
2022/08/23 12:40:00;;;;;;;3.63;2.90;;;42.60;23.60;;;;;;5042649;28;20458;-81
2022/08/23 12:42:30;;;;;;;2.90;2.60;;;43.50;22.90;;;;;;5042110;28;20478;-81
2022/08/23 12:45:12;;;;;;;2.37;2.17;;;43.40;22.60;;;;;;5035841;28;20520;-81
2022/08/23 12:47:42;;;;;;;4.00;2.80;;;43.50;22.90;;;;;;5040369;28;20794;-80
2022/08/23 12:50:19;;;;;;;2.77;2.50;;;43.70;22.40;;;;;;5042589;28;20474;-81
2022/08/23 12:52:56;;;;;;;3.30;2.17;;;43.00;22.90;;;;;;5046500;28;20453;-79
2022/08/23 12:55:23;;;;;;;2.50;2.27;;;43.40;23.10;;;;;;5053385;28;20453;-79
2022/08/23 12:57:55;;;;;;;2.60;2.40;;;42.90;23.20;;;;;;5062176;28;20442;-79
2022/08/23 13:00:26;;;;;;;4.67;2.50;;;41.50;23.60;;;;;;5041145;28;20468;-80
2022/08/23 13:02:59;;;;;;;2.70;2.23;;;41.90;23.50;;;;;;5043087;28;20456;-80
2022/08/23 13:05:43;;;;;;;1.90;1.77;;;41.50;23.60;;;;;;5046562;28;20546;-80
2022/08/23 13:08:13;;;;;;;3.73;2.50;;;43.00;23.30;;;;;;5062144;28;20484;-81
2022/08/23 13:10:43;;;;;;;6.10;5.50;;;43.00;22.50;;;;;;5062852;28;20481;-81
2022/08/23 13:13:12;;;;;;;8.33;7.57;;;43.40;22.60;;;;;;5051385;28;20450;-81
2022/08/23 13:15:51;;;;;;;3.20;2.63;;;44.10;22.40;;;;;;5046493;28;20828;-79